sensor_id;sensor_type;location;lat;lon;timestamp;pressure;altitude;pressure_sealevel;temperature;humidity
52855;BME280;38719;51.418;7.286;2023-05-10T00:00:03;99007.69;;;15.85;77.13
52855;BME280;38719;51.418;7.286;2023-05-10T00:02:31;99010.78;;;15.79;77.21
52855;BME280;38719;51.418;7.286;2023-05-10T00:05:00;99003.53;;;15.58;78.01
52855;BME280;38719;51.418;7.286;2023-05-10T00:07:27;99010.97;;;15.66;77.59
52855;BME280;38719;51.418;7.286;2023-05-10T00:09:55;99004.25;;;15.60;78.30
52855;BME280;38719;51.418;7.286;2023-05-10T00:12:22;99005.00;;;15.51;77.95
52855;BME280;38719;51.418;7.286;2023-05-10T00:14:50;99010.75;;;15.35;79.17
52855;BME280;38719;51.418;7.286;2023-05-10T00:17:17;99002.31;;;15.51;78.19
52855;BME280;38719;51.418;7.286;2023-05-10T00:19:45;98998.66;;;15.52;78.91
52855;BME280;38719;51.418;7.286;2023-05-10T00:22:14;99005.13;;;15.50;78.40
52855;BME280;38719;51.418;7.286;2023-05-10T00:24:41;99007.81;;;15.15;80.84
52855;BME280;38719;51.418;7.286;2023-05-10T00:27:09;99003.44;;;15.48;79.43
52855;BME280;38719;51.418;7.286;2023-05-10T00:29:36;99002.94;;;15.43;78.80
52855;BME280;38719;51.418;7.286;2023-05-10T00:32:04;99009.28;;;15.42;79.46
52855;BME280;38719;51.418;7.286;2023-05-10T00:34:32;99006.59;;;15.54;78.50
52855;BME280;38719;51.418;7.286;2023-05-10T00:36:59;99004.88;;;15.53;78.57
52855;BME280;38719;51.418;7.286;2023-05-10T00:39:29;99002.69;;;15.46;78.85
52855;BME280;38719;51.418;7.286;2023-05-10T00:41:56;99006.22;;;15.58;78.34
52855;BME280;38719;51.418;7.286;2023-05-10T00:44:24;99000.25;;;15.43;78.92
52855;BME280;38719;51.418;7.286;2023-05-10T00:46:52;99001.47;;;15.62;79.26
52855;BME280;38719;51.418;7.286;2023-05-10T00:49:20;99009.63;;;15.72;78.12
52855;BME280;38719;51.418;7.286;2023-05-10T00:51:48;98995.31;;;15.71;77.89
52855;BME280;38719;51.418;7.286;2023-05-10T00:54:16;99003.84;;;15.76;77.14
52855;BME280;38719;51.418;7.286;2023-05-10T00:56:45;99005.09;;;15.72;77.81
52855;BME280;38719;51.418;7.286;2023-05-10T00:59:15;99003.38;;;15.71;77.69
52855;BME280;38719;51.418;7.286;2023-05-10T01:01:44;99004.84;;;15.75;77.87
52855;BME280;38719;51.418;7.286;2023-05-10T01:04:13;99000.47;;;15.74;77.66
52855;BME280;38719;51.418;7.286;2023-05-10T01:06:41;99000.94;;;15.79;77.44
52855;BME280;38719;51.418;7.286;2023-05-10T01:09:08;98998.47;;;15.76;77.25
52855;BME280;38719;51.418;7.286;2023-05-10T01:11:39;99005.03;;;15.40;79.40
52855;BME280;38719;51.418;7.286;2023-05-10T01:14:08;99003.03;;;15.64;78.72
52855;BME280;38719;51.418;7.286;2023-05-10T01:16:38;99001.06;;;15.67;78.87
52855;BME280;38719;51.418;7.286;2023-05-10T01:19:11;99007.53;;;15.75;78.21
52855;BME280;38719;51.418;7.286;2023-05-10T01:21:46;99008.13;;;15.79;77.76
52855;BME280;38719;51.418;7.286;2023-05-10T01:24:38;99005.59;;;15.66;77.89
52855;BME280;38719;51.418;7.286;2023-05-10T01:27:19;99006.53;;;15.76;78.51
52855;BME280;38719;51.418;7.286;2023-05-10T01:30:38;99007.28;;;15.90;77.41
52855;BME280;38719;51.418;7.286;2023-05-10T01:33:15;99014.63;;;15.88;77.08
52855;BME280;38719;51.418;7.286;2023-05-10T01:35:46;99018.78;;;15.69;78.06
52855;BME280;38719;51.418;7.286;2023-05-10T01:38:18;99015.72;;;15.85;77.38
52855;BME280;38719;51.418;7.286;2023-05-10T01:40:54;99020.22;;;15.85;76.90
52855;BME280;38719;51.418;7.286;2023-05-10T01:43:28;99017.69;;;15.49;78.57
52855;BME280;38719;51.418;7.286;2023-05-10T01:45:59;99024.63;;;15.52;79.03
52855;BME280;38719;51.418;7.286;2023-05-10T01:48:32;99028.78;;;15.67;77.97
52855;BME280;38719;51.418;7.286;2023-05-10T01:51:00;99027.81;;;15.68;77.41
52855;BME280;38719;51.418;7.286;2023-05-10T01:53:28;99025.38;;;15.42;79.33
52855;BME280;38719;51.418;7.286;2023-05-10T01:55:57;99024.41;;;15.43;79.32
52855;BME280;38719;51.418;7.286;2023-05-10T01:58:28;99028.53;;;15.47;78.64
52855;BME280;38719;51.418;7.286;2023-05-10T02:00:59;99024.63;;;15.52;78.50
52855;BME280;38719;51.418;7.286;2023-05-10T02:03:28;99030.38;;;15.36;78.63
52855;BME280;38719;51.418;7.286;2023-05-10T02:05:58;99031.59;;;15.31;79.77
52855;BME280;38719;51.418;7.286;2023-05-10T02:08:26;99035.38;;;15.06;79.60
52855;BME280;38719;51.418;7.286;2023-05-10T02:10:55;99035.59;;;15.14;78.84
52855;BME280;38719;51.418;7.286;2023-05-10T02:13:24;99035.72;;;15.24;78.96
52855;BME280;38719;51.418;7.286;2023-05-10T02:15:54;99045.25;;;15.40;78.05
52855;BME280;38719;51.418;7.286;2023-05-10T02:18:23;99044.16;;;15.42;78.11
52855;BME280;38719;51.418;7.286;2023-05-10T02:20:52;99050.25;;;15.33;78.00
52855;BME280;38719;51.418;7.286;2023-05-10T02:23:23;99048.03;;;15.27;77.75
52855;BME280;38719;51.418;7.286;2023-05-10T02:25:51;99044.03;;;15.21;78.25
52855;BME280;38719;51.418;7.286;2023-05-10T02:28:19;99039.16;;;15.38;77.92
52855;BME280;38719;51.418;7.286;2023-05-10T02:30:48;99050.97;;;15.35;76.99
52855;BME280;38719;51.418;7.286;2023-05-10T02:33:16;99050.25;;;15.22;77.77
52855;BME280;38719;51.418;7.286;2023-05-10T02:35:46;99056.22;;;15.37;77.54
52855;BME280;38719;51.418;7.286;2023-05-10T02:38:14;99054.16;;;15.29;77.11
52855;BME280;38719;51.418;7.286;2023-05-10T02:40:44;99056.47;;;15.34;77.22
52855;BME280;38719;51.418;7.286;2023-05-10T02:43:15;99059.75;;;15.14;77.00
52855;BME280;38719;51.418;7.286;2023-05-10T02:45:47;99061.44;;;15.15;78.00
52855;BME280;38719;51.418;7.286;2023-05-10T02:48:15;99058.41;;;15.09;78.79
52855;BME280;38719;51.418;7.286;2023-05-10T02:50:44;99069.75;;;15.12;78.70
52855;BME280;38719;51.418;7.286;2023-05-10T02:53:15;99066.59;;;15.19;77.31
52855;BME280;38719;51.418;7.286;2023-05-10T02:55:50;99065.84;;;15.05;78.53
52855;BME280;38719;51.418;7.286;2023-05-10T02:58:18;99066.44;;;14.97;77.92
52855;BME280;38719;51.418;7.286;2023-05-10T03:00:47;99063.28;;;15.04;77.54
52855;BME280;38719;51.418;7.286;2023-05-10T03:03:14;99065.81;;;14.82;79.15
52855;BME280;38719;51.418;7.286;2023-05-10T03:05:42;99070.75;;;14.51;81.46
52855;BME280;38719;51.418;7.286;2023-05-10T03:08:09;99067.28;;;14.98;78.78
52855;BME280;38719;51.418;7.286;2023-05-10T03:10:54;99067.31;;;15.21;78.11
52855;BME280;38719;51.418;7.286;2023-05-10T03:13:25;99067.91;;;15.36;76.53
52855;BME280;38719;51.418;7.286;2023-05-10T03:15:58;99065.63;;;15.20;76.89
52855;BME280;38719;51.418;7.286;2023-05-10T03:18:29;99064.41;;;15.24;76.81
52855;BME280;38719;51.418;7.286;2023-05-10T03:21:03;99065.84;;;15.28;76.83
52855;BME280;38719;51.418;7.286;2023-05-10T03:23:35;99069.25;;;15.07;77.45
52855;BME280;38719;51.418;7.286;2023-05-10T03:26:04;99073.16;;;15.14;77.21
52855;BME280;38719;51.418;7.286;2023-05-10T03:28:34;99077.34;;;14.83;79.07
52855;BME280;38719;51.418;7.286;2023-05-10T03:31:02;99079.84;;;14.97;77.55
52855;BME280;38719;51.418;7.286;2023-05-10T03:33:31;99082.88;;;14.93;77.59
52855;BME280;38719;51.418;7.286;2023-05-10T03:35:59;99085.22;;;14.49;79.80
52855;BME280;38719;51.418;7.286;2023-05-10T03:38:26;99080.97;;;14.46;79.86
52855;BME280;38719;51.418;7.286;2023-05-10T03:40:56;99076.66;;;14.32;80.41
52855;BME280;38719;51.418;7.286;2023-05-10T03:43:24;99081.25;;;14.06;82.32
52855;BME280;38719;51.418;7.286;2023-05-10T03:45:52;99083.25;;;14.64;81.44
52855;BME280;38719;51.418;7.286;2023-05-10T03:48:20;99083.56;;;14.83;79.89
52855;BME280;38719;51.418;7.286;2023-05-10T03:50:47;99093.94;;;14.88;78.36
52855;BME280;38719;51.418;7.286;2023-05-10T03:53:15;99089.19;;;14.92;79.26
52855;BME280;38719;51.418;7.286;2023-05-10T03:55:42;99091.34;;;14.75;79.96
52855;BME280;38719;51.418;7.286;2023-05-10T03:58:11;99094.72;;;14.66;79.14
52855;BME280;38719;51.418;7.286;2023-05-10T04:00:40;99095.47;;;14.68;78.94
52855;BME280;38719;51.418;7.286;2023-05-10T04:03:10;99091.81;;;14.69;79.34
52855;BME280;38719;51.418;7.286;2023-05-10T04:05:38;99093.69;;;14.56;79.01
52855;BME280;38719;51.418;7.286;2023-05-10T04:08:05;99090.41;;;14.88;78.78
52855;BME280;38719;51.418;7.286;2023-05-10T04:10:33;99099.72;;;15.06;77.52
52855;BME280;38719;51.418;7.286;2023-05-10T04:13:01;99091.38;;;14.87;77.62
52855;BME280;38719;51.418;7.286;2023-05-10T04:15:28;99098.16;;;14.68;78.85
52855;BME280;38719;51.418;7.286;2023-05-10T04:17:57;99095.53;;;14.91;77.74
52855;BME280;38719;51.418;7.286;2023-05-10T04:20:24;99099.31;;;14.99;77.58
52855;BME280;38719;51.418;7.286;2023-05-10T04:22:52;99097.88;;;15.07;76.67
52855;BME280;38719;51.418;7.286;2023-05-10T04:25:19;99093.16;;;15.22;76.72
52855;BME280;38719;51.418;7.286;2023-05-10T04:27:47;99095.13;;;15.20;76.15
52855;BME280;38719;51.418;7.286;2023-05-10T04:30:15;99094.09;;;14.98;77.55
52855;BME280;38719;51.418;7.286;2023-05-10T04:32:43;99101.66;;;14.69;78.81
52855;BME280;38719;51.418;7.286;2023-05-10T04:35:11;99102.41;;;14.46;79.39
52855;BME280;38719;51.418;7.286;2023-05-10T04:37:41;99102.91;;;14.76;79.82
52855;BME280;38719;51.418;7.286;2023-05-10T04:40:10;99100.66;;;14.94;77.18
52855;BME280;38719;51.418;7.286;2023-05-10T04:42:39;99098.03;;;15.17;77.15
52855;BME280;38719;51.418;7.286;2023-05-10T04:45:07;99106.28;;;15.02;77.03
52855;BME280;38719;51.418;7.286;2023-05-10T04:47:36;99101.44;;;15.19;77.06
52855;BME280;38719;51.418;7.286;2023-05-10T04:50:05;99103.41;;;14.81;77.84
52855;BME280;38719;51.418;7.286;2023-05-10T04:52:34;99118.50;;;15.06;78.19
52855;BME280;38719;51.418;7.286;2023-05-10T04:55:03;99115.00;;;15.28;76.63
52855;BME280;38719;51.418;7.286;2023-05-10T04:57:30;99119.00;;;15.34;76.37
52855;BME280;38719;51.418;7.286;2023-05-10T04:59:59;99115.94;;;15.16;77.02
52855;BME280;38719;51.418;7.286;2023-05-10T05:02:27;99121.41;;;15.14;77.63
52855;BME280;38719;51.418;7.286;2023-05-10T05:04:55;99116.78;;;15.17;76.76
52855;BME280;38719;51.418;7.286;2023-05-10T05:07:23;99121.94;;;15.20;77.43
52855;BME280;38719;51.418;7.286;2023-05-10T05:09:52;99123.41;;;15.24;76.70
52855;BME280;38719;51.418;7.286;2023-05-10T05:12:20;99129.25;;;15.29;77.16
52855;BME280;38719;51.418;7.286;2023-05-10T05:14:48;99127.66;;;15.26;77.04
52855;BME280;38719;51.418;7.286;2023-05-10T05:17:15;99135.59;;;15.28;76.94
52855;BME280;38719;51.418;7.286;2023-05-10T05:19:43;99143.28;;;15.32;76.75
52855;BME280;38719;51.418;7.286;2023-05-10T05:22:10;99129.75;;;15.34;77.26
52855;BME280;38719;51.418;7.286;2023-05-10T05:24:37;99135.25;;;14.97;78.50
52855;BME280;38719;51.418;7.286;2023-05-10T05:27:06;99134.50;;;15.30;77.77
52855;BME280;38719;51.418;7.286;2023-05-10T05:29:34;99130.69;;;15.22;78.48
52855;BME280;38719;51.418;7.286;2023-05-10T05:32:01;99142.28;;;15.22;78.06
52855;BME280;38719;51.418;7.286;2023-05-10T05:34:29;99142.19;;;15.35;78.22
52855;BME280;38719;51.418;7.286;2023-05-10T05:36:57;99139.22;;;15.15;78.30
52855;BME280;38719;51.418;7.286;2023-05-10T05:39:24;99138.97;;;15.07;79.57
52855;BME280;38719;51.418;7.286;2023-05-10T05:41:51;99146.31;;;15.39;78.41
52855;BME280;38719;51.418;7.286;2023-05-10T05:44:20;99146.44;;;15.38;78.18
52855;BME280;38719;51.418;7.286;2023-05-10T05:46:48;99143.56;;;15.52;77.84
52855;BME280;38719;51.418;7.286;2023-05-10T05:49:15;99151.31;;;15.21;78.71
52855;BME280;38719;51.418;7.286;2023-05-10T05:51:43;99152.44;;;15.41;78.38
52855;BME280;38719;51.418;7.286;2023-05-10T05:54:10;99146.72;;;15.57;76.91
52855;BME280;38719;51.418;7.286;2023-05-10T05:56:38;99153.66;;;15.48;77.65
52855;BME280;38719;51.418;7.286;2023-05-10T05:59:05;99160.84;;;15.48;77.62
52855;BME280;38719;51.418;7.286;2023-05-10T06:01:34;99159.03;;;15.60;77.55
52855;BME280;38719;51.418;7.286;2023-05-10T06:04:01;99152.78;;;15.48;77.48
52855;BME280;38719;51.418;7.286;2023-05-10T06:06:29;99156.56;;;15.34;77.98
52855;BME280;38719;51.418;7.286;2023-05-10T06:08:58;99159.31;;;15.57;77.33
52855;BME280;38719;51.418;7.286;2023-05-10T06:11:25;99168.06;;;15.59;77.93
52855;BME280;38719;51.418;7.286;2023-05-10T06:13:53;99180.63;;;15.58;77.31
52855;BME280;38719;51.418;7.286;2023-05-10T06:16:20;99176.25;;;15.69;77.24
52855;BME280;38719;51.418;7.286;2023-05-10T06:18:50;99182.44;;;15.58;78.18
52855;BME280;38719;51.418;7.286;2023-05-10T06:21:17;99188.38;;;15.86;77.05
52855;BME280;38719;51.418;7.286;2023-05-10T06:23:45;99197.16;;;15.88;76.96
52855;BME280;38719;51.418;7.286;2023-05-10T06:26:12;99196.44;;;15.97;76.39
52855;BME280;38719;51.418;7.286;2023-05-10T06:28:40;99201.19;;;15.93;76.24
52855;BME280;38719;51.418;7.286;2023-05-10T06:31:07;99198.13;;;15.98;76.14
52855;BME280;38719;51.418;7.286;2023-05-10T06:33:35;99198.13;;;15.98;76.02
52855;BME280;38719;51.418;7.286;2023-05-10T06:36:04;99195.81;;;15.93;76.21
52855;BME280;38719;51.418;7.286;2023-05-10T06:38:32;99204.94;;;15.79;76.58
52855;BME280;38719;51.418;7.286;2023-05-10T06:40:59;99198.00;;;15.88;76.61
52855;BME280;38719;51.418;7.286;2023-05-10T06:43:27;99207.66;;;16.02;76.76
52855;BME280;38719;51.418;7.286;2023-05-10T06:45:54;99194.59;;;16.09;75.79
52855;BME280;38719;51.418;7.286;2023-05-10T06:48:22;99208.41;;;16.04;75.07
52855;BME280;38719;51.418;7.286;2023-05-10T06:50:49;99208.88;;;15.87;75.92
52855;BME280;38719;51.418;7.286;2023-05-10T06:53:18;99205.94;;;16.01;75.84
52855;BME280;38719;51.418;7.286;2023-05-10T06:55:46;99205.94;;;16.01;75.55
52855;BME280;38719;51.418;7.286;2023-05-10T06:58:14;99200.09;;;16.19;75.83
52855;BME280;38719;51.418;7.286;2023-05-10T07:00:41;99201.78;;;16.08;75.24
52855;BME280;38719;51.418;7.286;2023-05-10T07:03:10;99202.28;;;16.14;75.52
52855;BME280;38719;51.418;7.286;2023-05-10T07:05:38;99209.72;;;16.33;76.17
52855;BME280;38719;51.418;7.286;2023-05-10T07:08:05;99201.25;;;16.49;75.79
52855;BME280;38719;51.418;7.286;2023-05-10T07:10:34;99204.66;;;16.51;74.82
52855;BME280;38719;51.418;7.286;2023-05-10T07:13:02;99200.59;;;16.68;74.79
52855;BME280;38719;51.418;7.286;2023-05-10T07:15:29;99216.13;;;16.64;73.65
52855;BME280;38719;51.418;7.286;2023-05-10T07:17:57;99219.56;;;16.55;74.74
52855;BME280;38719;51.418;7.286;2023-05-10T07:20:24;99217.50;;;16.91;74.19
52855;BME280;38719;51.418;7.286;2023-05-10T07:22:52;99215.59;;;16.93;73.63
52855;BME280;38719;51.418;7.286;2023-05-10T07:25:19;99209.34;;;16.92;73.62
52855;BME280;38719;51.418;7.286;2023-05-10T07:27:48;99217.19;;;16.73;72.69
52855;BME280;38719;51.418;7.286;2023-05-10T07:30:17;99208.88;;;16.76;74.09
52855;BME280;38719;51.418;7.286;2023-05-10T07:32:44;99222.47;;;16.74;74.70
52855;BME280;38719;51.418;7.286;2023-05-10T07:35:12;99217.28;;;16.83;73.57
52855;BME280;38719;51.418;7.286;2023-05-10T07:37:40;99215.28;;;17.07;73.47
52855;BME280;38719;51.418;7.286;2023-05-10T07:40:08;99219.22;;;17.03;73.19
52855;BME280;38719;51.418;7.286;2023-05-10T07:42:36;99217.44;;;17.14;73.05
52855;BME280;38719;51.418;7.286;2023-05-10T07:45:07;99215.88;;;17.11;72.17
52855;BME280;38719;51.418;7.286;2023-05-10T07:47:35;99223.69;;;17.14;72.17
52855;BME280;38719;51.418;7.286;2023-05-10T07:50:03;99212.47;;;17.09;72.44
52855;BME280;38719;51.418;7.286;2023-05-10T07:52:31;99219.63;;;17.41;72.56
52855;BME280;38719;51.418;7.286;2023-05-10T07:54:59;99226.41;;;17.56;71.41
52855;BME280;38719;51.418;7.286;2023-05-10T07:57:26;99226.09;;;17.50;70.82
52855;BME280;38719;51.418;7.286;2023-05-10T07:59:53;99229.75;;;17.28;70.28
52855;BME280;38719;51.418;7.286;2023-05-10T08:02:22;99231.56;;;17.27;70.58
52855;BME280;38719;51.418;7.286;2023-05-10T08:04:50;99227.53;;;17.33;70.54
52855;BME280;38719;51.418;7.286;2023-05-10T08:07:18;99236.44;;;17.33;70.67
52855;BME280;38719;51.418;7.286;2023-05-10T08:09:45;99240.00;;;17.34;70.32
52855;BME280;38719;51.418;7.286;2023-05-10T08:12:13;99238.66;;;17.28;70.46
52855;BME280;38719;51.418;7.286;2023-05-10T08:14:40;99240.16;;;17.21;71.43
52855;BME280;38719;51.418;7.286;2023-05-10T08:17:08;99242.34;;;17.27;71.29
52855;BME280;38719;51.418;7.286;2023-05-10T08:19:37;99248.69;;;17.26;71.13
52855;BME280;38719;51.418;7.286;2023-05-10T08:22:05;99249.94;;;17.22;71.44
52855;BME280;38719;51.418;7.286;2023-05-10T08:24:32;99256.50;;;17.08;71.71
52855;BME280;38719;51.418;7.286;2023-05-10T08:27:04;99258.78;;;17.13;71.85
52855;BME280;38719;51.418;7.286;2023-05-10T08:29:32;99255.28;;;16.89;71.80
52855;BME280;38719;51.418;7.286;2023-05-10T08:32:15;99258.94;;;17.00;72.20
52855;BME280;38719;51.418;7.286;2023-05-10T08:34:44;99258.41;;;17.17;71.70
52855;BME280;38719;51.418;7.286;2023-05-10T08:37:11;99273.75;;;17.05;71.98
52855;BME280;38719;51.418;7.286;2023-05-10T08:39:40;99268.19;;;17.18;71.50
52855;BME280;38719;51.418;7.286;2023-05-10T08:42:07;99280.69;;;17.08;71.97
52855;BME280;38719;51.418;7.286;2023-05-10T08:44:36;99278.53;;;17.02;72.69
52855;BME280;38719;51.418;7.286;2023-05-10T08:47:05;99275.50;;;17.28;71.81
52855;BME280;38719;51.418;7.286;2023-05-10T08:49:34;99277.31;;;17.27;72.15
52855;BME280;38719;51.418;7.286;2023-05-10T08:52:03;99275.13;;;17.75;71.27
52855;BME280;38719;51.418;7.286;2023-05-10T08:54:31;99277.69;;;17.76;70.42
52855;BME280;38719;51.418;7.286;2023-05-10T08:56:59;99282.75;;;18.12;70.53
52855;BME280;38719;51.418;7.286;2023-05-10T08:59:27;99277.09;;;18.15;68.61
52855;BME280;38719;51.418;7.286;2023-05-10T09:01:57;99275.69;;;17.78;68.82
52855;BME280;38719;51.418;7.286;2023-05-10T09:04:25;99280.19;;;17.68;70.13
52855;BME280;38719;51.418;7.286;2023-05-10T09:06:53;99280.25;;;17.78;68.22
52855;BME280;38719;51.418;7.286;2023-05-10T09:09:23;99284.88;;;18.08;68.60
52855;BME280;38719;51.418;7.286;2023-05-10T09:11:53;99287.94;;;18.03;68.24
52855;BME280;38719;51.418;7.286;2023-05-10T09:14:23;99289.03;;;18.22;68.17
52855;BME280;38719;51.418;7.286;2023-05-10T09:16:52;99301.00;;;18.29;66.11
52855;BME280;38719;51.418;7.286;2023-05-10T09:19:21;99306.44;;;18.39;66.71
52855;BME280;38719;51.418;7.286;2023-05-10T09:21:48;99303.66;;;18.60;66.64
52855;BME280;38719;51.418;7.286;2023-05-10T09:24:16;99300.81;;;18.62;67.73
52855;BME280;38719;51.418;7.286;2023-05-10T09:26:48;99299.38;;;18.48;66.90
52855;BME280;38719;51.418;7.286;2023-05-10T09:29:16;99292.56;;;18.53;66.31
52855;BME280;38719;51.418;7.286;2023-05-10T09:31:45;99289.34;;;18.69;65.87
52855;BME280;38719;51.418;7.286;2023-05-10T09:34:17;99298.03;;;18.83;64.88
52855;BME280;38719;51.418;7.286;2023-05-10T09:36:54;99293.69;;;18.92;65.58
52855;BME280;38719;51.418;7.286;2023-05-10T09:39:30;99299.09;;;18.92;65.79
52855;BME280;38719;51.418;7.286;2023-05-10T09:42:02;99301.56;;;19.14;63.49
52855;BME280;38719;51.418;7.286;2023-05-10T09:44:31;99286.50;;;19.31;62.83
52855;BME280;38719;51.418;7.286;2023-05-10T09:46:58;99289.75;;;19.15;63.38
52855;BME280;38719;51.418;7.286;2023-05-10T09:49:26;99302.69;;;19.41;63.17
52855;BME280;38719;51.418;7.286;2023-05-10T09:52:01;99291.91;;;19.41;63.62
52855;BME280;38719;51.418;7.286;2023-05-10T09:54:29;99303.69;;;19.70;63.44
52855;BME280;38719;51.418;7.286;2023-05-10T09:56:57;99302.84;;;19.79;62.46
52855;BME280;38719;51.418;7.286;2023-05-10T09:59:27;99312.34;;;20.03;61.55
52855;BME280;38719;51.418;7.286;2023-05-10T10:01:55;99303.28;;;19.84;61.33
52855;BME280;38719;51.418;7.286;2023-05-10T10:04:24;99304.41;;;19.52;61.60
52855;BME280;38719;51.418;7.286;2023-05-10T10:07:02;99305.13;;;19.44;62.69
52855;BME280;38719;51.418;7.286;2023-05-10T10:09:30;99312.91;;;19.28;61.99
52855;BME280;38719;51.418;7.286;2023-05-10T10:11:59;99311.91;;;19.19;62.57
52855;BME280;38719;51.418;7.286;2023-05-10T10:14:29;99312.06;;;19.27;62.03
52855;BME280;38719;51.418;7.286;2023-05-10T10:17:00;99316.63;;;19.37;61.52
52855;BME280;38719;51.418;7.286;2023-05-10T10:19:32;99302.69;;;19.41;60.93
52855;BME280;38719;51.418;7.286;2023-05-10T10:22:00;99308.94;;;19.12;62.83
52855;BME280;38719;51.418;7.286;2023-05-10T10:24:29;99315.31;;;19.01;62.36
52855;BME280;38719;51.418;7.286;2023-05-10T10:27:01;99315.03;;;18.64;62.11
52855;BME280;38719;51.418;7.286;2023-05-10T10:29:38;99323.47;;;18.18;64.45
52855;BME280;38719;51.418;7.286;2023-05-10T10:32:11;99329.38;;;17.91;65.27
52855;BME280;38719;51.418;7.286;2023-05-10T10:34:44;99331.31;;;18.00;65.10
52855;BME280;38719;51.418;7.286;2023-05-10T10:37:12;99327.63;;;18.01;64.79
52855;BME280;38719;51.418;7.286;2023-05-10T10:39:39;99334.84;;;18.22;64.06
52855;BME280;38719;51.418;7.286;2023-05-10T10:42:07;99330.09;;;18.35;64.35
52855;BME280;38719;51.418;7.286;2023-05-10T10:44:39;99323.44;;;18.80;61.66
52855;BME280;38719;51.418;7.286;2023-05-10T10:47:21;99332.25;;;18.73;62.15
52855;BME280;38719;51.418;7.286;2023-05-10T10:50:03;99335.34;;;19.09;61.09
52855;BME280;38719;51.418;7.286;2023-05-10T10:52:32;99326.66;;;19.05;60.95
52855;BME280;38719;51.418;7.286;2023-05-10T10:55:02;99331.41;;;19.32;60.27
52855;BME280;38719;51.418;7.286;2023-05-10T10:57:42;99325.44;;;19.39;60.53
52855;BME280;38719;51.418;7.286;2023-05-10T11:00:26;99325.59;;;19.47;60.34
52855;BME280;38719;51.418;7.286;2023-05-10T11:02:56;99321.03;;;19.57;60.14
52855;BME280;38719;51.418;7.286;2023-05-10T11:05:36;99333.13;;;19.43;59.08
52855;BME280;38719;51.418;7.286;2023-05-10T11:08:09;99336.03;;;19.01;59.75
52855;BME280;38719;51.418;7.286;2023-05-10T11:10:38;99347.88;;;18.79;59.85
52855;BME280;38719;51.418;7.286;2023-05-10T11:13:07;99348.53;;;18.61;59.95
52855;BME280;38719;51.418;7.286;2023-05-10T11:15:37;99343.16;;;18.81;59.97
52855;BME280;38719;51.418;7.286;2023-05-10T11:18:18;99347.97;;;18.98;60.05
52855;BME280;38719;51.418;7.286;2023-05-10T11:20:50;99344.84;;;18.72;60.52
52855;BME280;38719;51.418;7.286;2023-05-10T11:23:18;99354.97;;;18.80;59.36
52855;BME280;38719;51.418;7.286;2023-05-10T11:25:48;99349.59;;;18.80;59.94
52855;BME280;38719;51.418;7.286;2023-05-10T11:28:17;99352.00;;;18.83;59.63
52855;BME280;38719;51.418;7.286;2023-05-10T11:30:47;99359.03;;;18.95;60.14
52855;BME280;38719;51.418;7.286;2023-05-10T11:33:16;99361.91;;;18.73;60.29
52855;BME280;38719;51.418;7.286;2023-05-10T11:35:45;99379.22;;;18.70;59.93
52855;BME280;38719;51.418;7.286;2023-05-10T11:38:14;99362.69;;;18.63;60.35
52855;BME280;38719;51.418;7.286;2023-05-10T11:40:41;99370.25;;;18.39;61.17
52855;BME280;38719;51.418;7.286;2023-05-10T11:43:09;99376.44;;;18.29;61.22
52855;BME280;38719;51.418;7.286;2023-05-10T11:45:40;99378.56;;;18.04;62.17
52855;BME280;38719;51.418;7.286;2023-05-10T11:48:09;99376.97;;;18.23;61.61
52855;BME280;38719;51.418;7.286;2023-05-10T11:50:37;99373.03;;;18.27;62.10
52855;BME280;38719;51.418;7.286;2023-05-10T11:53:05;99371.16;;;18.28;60.70
52855;BME280;38719;51.418;7.286;2023-05-10T11:55:33;99377.41;;;18.49;61.76
52855;BME280;38719;51.418;7.286;2023-05-10T11:58:01;99379.06;;;18.72;60.77
52855;BME280;38719;51.418;7.286;2023-05-10T12:00:30;99373.31;;;18.86;60.12
52855;BME280;38719;51.418;7.286;2023-05-10T12:03:00;99380.47;;;18.97;60.20
52855;BME280;38719;51.418;7.286;2023-05-10T12:05:32;99380.19;;;19.00;59.91
52855;BME280;38719;51.418;7.286;2023-05-10T12:08:14;99380.28;;;19.29;59.71
52855;BME280;38719;51.418;7.286;2023-05-10T12:10:41;99383.97;;;19.38;59.56
52855;BME280;38719;51.418;7.286;2023-05-10T12:13:12;99381.13;;;19.30;60.05
52855;BME280;38719;51.418;7.286;2023-05-10T12:15:42;99389.41;;;19.48;59.27
52855;BME280;38719;51.418;7.286;2023-05-10T12:18:10;99381.97;;;19.30;59.03
52855;BME280;38719;51.418;7.286;2023-05-10T12:20:40;99389.91;;;19.22;58.55
52855;BME280;38719;51.418;7.286;2023-05-10T12:23:09;99386.50;;;19.30;57.87
52855;BME280;38719;51.418;7.286;2023-05-10T12:25:37;99382.28;;;19.37;57.87
52855;BME280;38719;51.418;7.286;2023-05-10T12:28:08;99390.09;;;19.70;56.75
52855;BME280;38719;51.418;7.286;2023-05-10T12:30:36;99387.16;;;19.92;56.72
52855;BME280;38719;51.418;7.286;2023-05-10T12:33:08;99379.75;;;19.85;57.09
52855;BME280;38719;51.418;7.286;2023-05-10T12:35:45;99391.97;;;19.79;57.14
52855;BME280;38719;51.418;7.286;2023-05-10T12:38:27;99390.09;;;19.70;56.05
52855;BME280;38719;51.418;7.286;2023-05-10T12:40:57;99389.84;;;19.73;56.07
52855;BME280;38719;51.418;7.286;2023-05-10T12:43:24;99385.47;;;20.01;56.05
52855;BME280;38719;51.418;7.286;2023-05-10T12:45:52;99395.38;;;19.71;55.99
52855;BME280;38719;51.418;7.286;2023-05-10T12:48:20;99397.94;;;20.02;55.58
52855;BME280;38719;51.418;7.286;2023-05-10T12:50:48;99400.78;;;19.81;56.08
52855;BME280;38719;51.418;7.286;2023-05-10T12:53:16;99399.22;;;20.18;55.44
52855;BME280;38719;51.418;7.286;2023-05-10T12:55:44;99392.22;;;20.35;55.15
52855;BME280;38719;51.418;7.286;2023-05-10T12:58:11;99409.56;;;20.42;55.06
52855;BME280;38719;51.418;7.286;2023-05-10T13:00:59;99405.78;;;20.05;56.17
52855;BME280;38719;51.418;7.286;2023-05-10T13:03:26;99409.06;;;20.76;54.80
52855;BME280;38719;51.418;7.286;2023-05-10T13:05:55;99414.00;;;20.90;54.69
52855;BME280;38719;51.418;7.286;2023-05-10T13:08:23;99399.63;;;20.80;54.59
52855;BME280;38719;51.418;7.286;2023-05-10T13:10:51;99406.09;;;21.07;53.42